createdAt,value
2023-04-03T00:01:14.764Z,72.34
2023-04-03T00:03:44.890Z,72.41
2023-04-03T00:06:13.147Z,71.93
2023-04-03T00:08:41.568Z,71.49
2023-04-03T00:11:09.806Z,70.49
2023-04-03T00:13:37.743Z,70.17
2023-04-03T00:16:05.561Z,68.66
2023-04-03T00:18:32.986Z,67.68
2023-04-03T00:21:00.249Z,67.65
2023-04-03T00:23:27.476Z,67.27
2023-04-03T00:25:54.827Z,67.25
2023-04-03T00:28:22.177Z,67.02
2023-04-03T00:30:52.795Z,65.98
2023-04-03T00:33:22.966Z,65.87
2023-04-03T00:35:50.853Z,64.92
2023-04-03T00:38:18.792Z,65.04
2023-04-03T00:40:48.925Z,64.49
2023-04-03T00:43:22.528Z,64.18
2023-04-03T00:45:55.567Z,64.83
2023-04-03T00:48:45.301Z,64.70
2023-04-03T00:51:16.496Z,64.68
2023-04-03T00:53:56.145Z,64.25
2023-04-03T00:56:26.373Z,63.38
2023-04-03T00:59:03.227Z,63.33
2023-04-03T01:01:31.814Z,64.32
2023-04-03T01:04:04.161Z,65.80
2023-04-03T01:06:36.389Z,66.99
2023-04-03T01:09:13.335Z,67.57
2023-04-03T01:11:40.755Z,67.67
2023-04-03T01:14:08.229Z,68.28
2023-04-03T01:16:35.998Z,69.41
2023-04-03T01:19:06.902Z,70.31
2023-04-03T01:21:49.731Z,70.06
2023-04-03T01:24:26.424Z,70.92
2023-04-03T01:26:53.550Z,70.74
2023-04-03T01:29:20.952Z,70.29
2023-04-03T01:31:54.449Z,70.25
2023-04-03T01:34:22.206Z,70.39
2023-04-03T01:36:51.721Z,70.40
2023-04-03T01:39:19.517Z,70.93
2023-04-03T01:41:48.219Z,71.65
2023-04-03T01:44:22.700Z,71.60
2023-04-03T01:46:50.436Z,71.65
2023-04-03T01:49:18.030Z,71.17
2023-04-03T01:51:45.780Z,70.82
2023-04-03T01:54:13.629Z,70.80
2023-04-03T01:56:40.787Z,71.06
2023-04-03T01:59:08.942Z,71.67
2023-04-03T02:01:36.559Z,71.62
2023-04-03T02:04:04.349Z,72.33
2023-04-03T02:06:31.539Z,72.54
2023-04-03T02:08:58.845Z,72.65
2023-04-03T02:11:25.985Z,73.29
2023-04-03T02:13:53.612Z,73.50
2023-04-03T02:16:20.717Z,73.17
2023-04-03T02:18:51.421Z,72.96
2023-04-03T02:21:19.064Z,73.07
2023-04-03T02:23:46.190Z,73.42
2023-04-03T02:26:16.413Z,74.05
2023-04-03T02:28:46.438Z,74.04
2023-04-03T02:31:13.807Z,74.61
2023-04-03T02:33:42.806Z,74.07
2023-04-03T02:36:12.068Z,74.33
2023-04-03T02:38:43.109Z,76.21
2023-04-03T02:41:13.088Z,76.73
2023-04-03T02:43:41.037Z,77.39
2023-04-03T02:46:08.729Z,78.38
2023-04-03T02:48:36.484Z,79.54
2023-04-03T02:51:03.797Z,79.30
2023-04-03T02:53:30.844Z,79.56
2023-04-03T02:55:59.784Z,80.02
2023-04-03T02:58:26.926Z,80.83
2023-04-03T03:00:57.129Z,80.10
2023-04-03T03:03:24.312Z,80.47
2023-04-03T03:05:51.437Z,80.90
2023-04-03T03:08:21.378Z,80.55
2023-04-03T03:10:48.587Z,80.69
2023-04-03T03:13:15.719Z,79.77
2023-04-03T03:15:42.861Z,79.39
2023-04-03T03:18:10.020Z,79.31
2023-04-03T03:20:37.424Z,78.76
2023-04-03T03:23:05.010Z,79.09
2023-04-03T03:25:32.077Z,79.26
2023-04-03T03:27:59.166Z,79.36
2023-04-03T03:30:27.240Z,80.38
2023-04-03T03:32:54.495Z,80.55
2023-04-03T03:35:21.589Z,81.59
2023-04-03T03:37:48.691Z,81.15
2023-04-03T03:40:16.021Z,81.53
2023-04-03T03:42:45.863Z,81.93
2023-04-03T03:45:13.482Z,81.27
2023-04-03T03:47:42.490Z,82.12
2023-04-03T03:50:10.111Z,82.39
2023-04-03T03:52:37.318Z,82.31
2023-04-03T03:55:04.711Z,81.36
2023-04-03T03:57:32.786Z,81.80
2023-04-03T03:59:59.882Z,82.55
2023-04-03T04:02:27.333Z,82.85
2023-04-03T04:04:54.630Z,82.73
2023-04-03T04:07:22.660Z,81.78
2023-04-03T04:09:50.375Z,82.03
2023-04-03T04:12:17.693Z,82.00
2023-04-03T04:14:47.745Z,81.84
2023-04-03T04:17:16.316Z,81.97
2023-04-03T04:19:43.508Z,82.05
2023-04-03T04:22:10.582Z,81.68
2023-04-03T04:24:38.639Z,82.14
2023-04-03T04:27:08.536Z,81.24
2023-04-03T04:29:38.269Z,80.61
2023-04-03T04:32:07.545Z,80.91
2023-04-03T04:34:36.155Z,80.01
2023-04-03T04:37:04.058Z,80.57
2023-04-03T04:39:31.507Z,80.91
2023-04-03T04:41:59.562Z,80.69
2023-04-03T04:44:29.430Z,80.44
2023-04-03T04:46:56.546Z,79.95
2023-04-03T04:49:23.646Z,80.03
2023-04-03T04:51:52.212Z,80.28
2023-04-03T04:54:25.705Z,80.21
2023-04-03T04:56:53.535Z,79.94
2023-04-03T04:59:22.105Z,80.44
2023-04-03T05:01:51.240Z,80.79
2023-04-03T05:04:19.207Z,80.46
2023-04-03T05:06:50.637Z,81.20
2023-04-03T05:09:22.773Z,80.71
2023-04-03T05:11:51.584Z,79.65
2023-04-03T05:14:21.777Z,79.24
2023-04-03T05:16:53.842Z,78.33
2023-04-03T05:19:23.603Z,77.58
2023-04-03T05:21:52.245Z,76.80
2023-04-03T05:24:19.975Z,75.76
2023-04-03T05:26:47.681Z,75.86
2023-04-03T05:29:16.657Z,75.51
2023-04-03T05:31:44.490Z,75.54
2023-04-03T05:34:14.281Z,74.96
2023-04-03T05:36:42.964Z,74.43
2023-04-03T05:39:11.649Z,73.44
2023-04-03T05:41:42.380Z,72.73
2023-04-03T05:44:09.571Z,72.86
2023-04-03T05:46:37.012Z,73.92
2023-04-03T05:49:07.243Z,73.04
2023-04-03T05:51:38.143Z,73.00
2023-04-03T05:54:35.385Z,74.00
2023-04-03T05:57:17.765Z,72.95
2023-04-03T05:59:46.724Z,73.43
2023-04-03T06:02:17.634Z,72.37
2023-04-03T06:04:48.949Z,71.86
2023-04-03T06:07:19.440Z,71.02
2023-04-03T06:09:46.822Z,70.63
2023-04-03T06:12:14.541Z,70.38
2023-04-03T06:14:42.151Z,69.98
2023-04-03T06:17:10.246Z,70.81
2023-04-03T06:19:37.889Z,70.81
2023-04-03T06:22:05.925Z,69.54
2023-04-03T06:24:33.281Z,68.75
2023-04-03T06:27:00.898Z,69.20
2023-04-03T06:29:28.009Z,69.12
2023-04-03T06:31:55.334Z,69.45
2023-04-03T06:34:22.592Z,69.09
2023-04-03T06:36:50.097Z,68.77
2023-04-03T06:39:26.638Z,69.71
2023-04-03T06:41:53.969Z,69.10
2023-04-03T06:44:29.468Z,69.08
2023-04-03T06:46:56.587Z,69.16
2023-04-03T06:49:23.653Z,68.70
2023-04-03T06:51:51.585Z,68.46
2023-04-03T06:54:19.894Z,68.30
2023-04-03T06:56:47.535Z,68.76
2023-04-03T06:59:15.913Z,67.49
2023-04-03T07:01:43.844Z,66.76
2023-04-03T07:04:11.465Z,66.73
2023-04-03T07:06:38.667Z,66.58
2023-04-03T07:09:05.714Z,66.66
2023-04-03T07:11:32.830Z,65.81
2023-04-03T07:13:59.943Z,65.65
2023-04-03T07:16:28.006Z,65.61
2023-04-03T07:18:55.218Z,65.65
2023-04-03T07:21:22.509Z,66.04
2023-04-03T07:26:22.286Z,65.91
2023-04-03T07:28:50.979Z,64.89
2023-04-03T07:31:19.481Z,64.66
2023-04-03T07:33:47.044Z,65.63
2023-04-03T07:36:20.548Z,66.97
2023-04-03T07:38:47.725Z,65.79
2023-04-03T07:41:21.225Z,65.11
2023-04-03T07:43:48.346Z,64.34
2023-04-03T07:46:15.616Z,64.57
2023-04-03T07:48:42.795Z,64.68
2023-04-03T07:51:11.841Z,64.68
2023-04-03T07:53:39.070Z,64.71
2023-04-03T07:56:06.581Z,63.91
2023-04-03T07:58:34.179Z,63.51
2023-04-03T08:01:01.626Z,63.77
2023-04-03T08:03:28.906Z,63.85
2023-04-03T08:05:56.301Z,64.89
2023-04-03T08:08:23.995Z,63.18
2023-04-03T08:10:55.024Z,61.39
2023-04-03T08:13:22.782Z,61.80
2023-04-03T08:15:50.245Z,62.12
2023-04-03T08:18:17.625Z,62.07
2023-04-03T08:20:45.877Z,62.23
2023-04-03T08:23:13.152Z,62.28
2023-04-03T08:25:41.978Z,62.32
2023-04-03T08:28:10.311Z,62.31
2023-04-03T08:30:39.662Z,62.73
2023-04-03T08:33:07.381Z,62.38
2023-04-03T08:35:36.294Z,62.09
2023-04-03T08:38:04.688Z,61.93
2023-04-03T08:40:32.163Z,60.79
2023-04-03T08:43:08.086Z,59.56
2023-04-03T08:45:52.325Z,60.49
2023-04-03T08:48:32.447Z,61.04
2023-04-03T08:51:10.830Z,60.27
2023-04-03T08:53:42.508Z,59.24
2023-04-03T08:56:11.293Z,59.54
2023-04-03T08:58:49.152Z,58.57
2023-04-03T09:01:22.509Z,57.72
2023-04-03T09:03:49.719Z,55.73
2023-04-03T09:06:31.792Z,58.26
2023-04-03T09:09:04.457Z,54.81
2023-04-03T09:11:42.575Z,55.63
2023-04-03T09:14:09.617Z,55.98
2023-04-03T09:16:59.698Z,54.14
2023-04-03T09:19:32.588Z,53.99
2023-04-03T09:22:14.858Z,54.12
2023-04-03T09:24:43.434Z,55.21
2023-04-03T09:27:13.247Z,56.17
2023-04-03T09:29:47.213Z,53.07
2023-04-03T09:32:37.863Z,54.48
2023-04-03T09:35:19.786Z,53.06
2023-04-03T09:38:02.531Z,52.92
2023-04-03T09:40:36.678Z,51.95
2023-04-03T09:43:25.974Z,52.57
2023-04-03T10:18:21.702Z,63.48
2023-04-03T10:20:53.860Z,62.98
2023-04-03T10:23:34.329Z,62.41
2023-04-03T10:26:38.834Z,61.64
2023-04-03T10:29:26.607Z,62.50
2023-04-03T10:31:56.553Z,60.83
2023-04-03T10:34:23.646Z,61.49
2023-04-03T10:36:56.590Z,59.30
2023-04-03T10:39:36.181Z,59.13
2023-04-03T10:42:17.202Z,60.46
2023-04-03T10:45:09.608Z,59.70
2023-04-03T10:48:01.400Z,61.36
2023-04-03T10:50:31.410Z,59.86
2023-04-03T10:53:11.928Z,58.96
2023-04-03T10:55:53.894Z,61.20
2023-04-03T10:58:38.109Z,61.92
2023-04-03T11:01:28.547Z,59.77
2023-04-03T11:04:00.284Z,60.44
2023-04-03T11:07:05.988Z,59.20
2023-04-03T11:09:38.876Z,62.55
2023-04-03T11:12:15.144Z,61.54
2023-04-03T11:14:42.858Z,59.74
2023-04-03T11:17:24.824Z,58.13
2023-04-03T11:20:11.957Z,57.04
2023-04-03T11:23:07.829Z,56.90
2023-04-03T11:25:38.581Z,56.45
2023-04-03T11:28:15.022Z,56.90
2023-04-03T11:30:53.502Z,56.51
2023-04-03T11:33:32.561Z,57.21
2023-04-03T11:36:19.087Z,56.93
2023-04-03T11:39:00.485Z,56.81
2023-04-03T11:41:32.642Z,56.72
2023-04-03T11:44:07.127Z,56.26
2023-04-03T11:46:53.234Z,56.06
2023-04-03T11:50:03.940Z,57.20
2023-04-03T11:52:43.151Z,57.08
2023-04-03T11:55:22.982Z,57.56
2023-04-03T11:57:59.022Z,56.74
2023-04-03T12:01:03.980Z,54.90
2023-04-03T12:03:53.555Z,56.29
2023-04-03T12:06:20.786Z,58.64
2023-04-03T12:08:49.749Z,58.83
2023-04-03T12:11:27.674Z,57.55
2023-04-03T12:13:57.874Z,57.50
2023-04-03T12:16:39.188Z,56.62
2023-04-03T12:19:15.241Z,57.29
2023-04-03T12:21:49.018Z,57.81
2023-04-03T12:24:20.402Z,57.29
2023-04-03T12:27:11.243Z,57.02
2023-04-03T12:29:43.879Z,57.19
2023-04-03T12:32:23.888Z,60.24
2023-04-03T12:35:06.611Z,59.06
2023-04-03T12:37:55.387Z,59.88
2023-04-03T12:40:32.910Z,58.13
2023-04-03T12:43:16.082Z,58.92
2023-04-03T12:45:50.232Z,59.07
2023-04-03T12:48:22.357Z,58.79
2023-04-03T12:50:51.146Z,58.12
2023-04-03T12:53:23.699Z,58.76
2023-04-03T12:55:58.152Z,59.65
2023-04-03T12:58:29.639Z,58.54
2023-04-03T13:01:11.616Z,60.09
2023-04-03T13:03:44.311Z,59.73
2023-04-03T13:06:25.490Z,62.83
2023-04-03T13:08:55.441Z,62.70
2023-04-03T13:11:23.423Z,62.35
2023-04-03T13:14:08.757Z,60.45
2023-04-03T13:16:36.864Z,62.51
2023-04-03T13:19:04.202Z,63.58
2023-04-03T13:21:35.205Z,62.38
2023-04-03T13:24:14.943Z,63.35
2023-04-03T13:26:43.996Z,63.72
2023-04-03T13:29:35.937Z,62.07
2023-04-03T13:32:06.179Z,61.33
2023-04-03T13:34:45.242Z,64.43
2023-04-03T13:37:32.359Z,62.96
2023-04-03T13:40:12.329Z,64.00
2023-04-03T13:42:44.599Z,63.29
2023-04-03T13:45:21.334Z,62.62
2023-04-03T13:47:50.849Z,65.38
2023-04-03T13:50:23.553Z,65.10
2023-04-03T13:52:55.299Z,63.71
2023-04-03T13:55:38.434Z,64.99
2023-04-03T13:58:08.709Z,65.24
2023-04-03T14:00:56.470Z,66.05
2023-04-03T14:03:35.468Z,65.29
2023-04-03T14:06:02.869Z,64.67
2023-04-03T14:08:42.293Z,64.53
2023-04-03T14:11:20.024Z,65.25
2023-04-03T14:13:48.344Z,65.42
2023-04-03T14:16:20.356Z,65.83
2023-04-03T14:18:48.998Z,65.55
2023-04-03T14:21:17.887Z,66.20
2023-04-03T14:23:45.773Z,65.76
2023-04-03T14:26:19.658Z,67.06
2023-04-03T14:28:49.652Z,68.12
2023-04-03T14:31:17.468Z,67.79
2023-04-03T14:33:45.555Z,67.69
2023-04-03T14:36:18.172Z,68.59
2023-04-03T14:38:46.444Z,68.28
2023-04-03T14:41:16.994Z,67.98
2023-04-03T14:43:45.637Z,67.50
2023-04-03T14:46:14.832Z,68.40
2023-04-03T14:48:42.060Z,70.02
2023-04-03T14:51:12.228Z,71.78
2023-04-03T14:53:40.453Z,71.37
2023-04-03T14:56:28.403Z,71.25
2023-04-03T14:58:58.469Z,71.96
2023-04-03T15:01:26.478Z,72.38
2023-04-03T15:03:53.839Z,73.98
2023-04-03T15:06:22.072Z,74.50
2023-04-03T15:08:49.687Z,74.81
2023-04-03T15:11:17.256Z,73.66
2023-04-03T15:13:44.593Z,74.00
2023-04-03T15:16:18.276Z,75.80
2023-04-03T15:18:47.217Z,77.31
2023-04-03T15:21:14.732Z,77.49
2023-04-03T15:23:41.848Z,77.86
2023-04-03T15:26:09.159Z,78.26
2023-04-03T15:28:37.514Z,78.40
2023-04-03T15:31:05.917Z,78.70
2023-04-03T15:33:34.537Z,78.52
2023-04-03T15:36:07.307Z,78.22
2023-04-03T15:38:39.629Z,78.11
2023-04-03T15:41:06.916Z,79.11
2023-04-03T15:43:35.027Z,79.00
2023-04-03T15:46:02.956Z,78.65
2023-04-03T15:48:31.281Z,79.39
2023-04-03T15:50:59.340Z,78.82
2023-04-03T15:53:27.054Z,79.34
2023-04-03T15:55:54.240Z,80.48
2023-04-03T15:58:21.364Z,81.53
2023-04-03T16:00:48.668Z,82.16
2023-04-03T16:03:21.258Z,83.30
2023-04-03T16:05:49.108Z,83.98
2023-04-03T16:08:17.159Z,84.52
2023-04-03T16:10:46.351Z,84.71
2023-04-03T16:13:13.857Z,85.54
2023-04-03T16:15:41.786Z,86.81
2023-04-03T16:18:10.188Z,86.09
2023-04-03T16:20:38.012Z,86.57
2023-04-03T16:23:05.525Z,86.98
2023-04-03T16:25:32.642Z,87.38
2023-04-03T16:27:59.803Z,87.62
2023-04-03T16:30:27.230Z,87.58
2023-04-03T16:32:54.828Z,87.79
2023-04-03T16:35:22.315Z,87.80
2023-04-03T16:37:49.572Z,87.88
2023-04-03T16:40:17.283Z,87.88
2023-04-03T16:42:44.544Z,87.23
2023-04-03T16:45:12.037Z,86.50
2023-04-03T16:47:39.201Z,87.34
2023-04-03T16:50:06.975Z,87.52
2023-04-03T16:52:34.325Z,88.04
2023-04-03T16:55:01.466Z,87.83
2023-04-03T16:57:28.599Z,86.05
2023-04-03T16:59:56.230Z,84.49
2023-04-03T17:02:27.937Z,83.68
2023-04-03T17:04:55.436Z,82.91
2023-04-03T17:07:24.457Z,82.11
2023-04-03T17:09:54.521Z,84.25
2023-04-03T17:12:22.626Z,85.09
2023-04-03T17:14:49.919Z,85.91
2023-04-03T17:17:21.325Z,86.63
2023-04-03T17:19:48.655Z,87.43
2023-04-03T17:22:17.648Z,88.06
2023-04-03T17:24:45.463Z,87.85
2023-04-03T17:27:12.708Z,87.85
2023-04-03T17:29:39.933Z,88.13
2023-04-03T17:32:07.262Z,88.57
2023-04-03T17:34:34.544Z,88.56
2023-04-03T17:37:01.709Z,88.84
2023-04-03T17:39:28.928Z,89.07
2023-04-03T17:41:56.264Z,89.66
2023-04-03T17:44:23.561Z,89.83
2023-04-03T17:46:50.796Z,89.36
2023-04-03T17:49:18.937Z,88.88
2023-04-03T17:51:46.574Z,88.95
2023-04-03T17:54:13.755Z,88.97
2023-04-03T17:56:47.752Z,89.41
2023-04-03T17:59:16.729Z,88.82
2023-04-03T18:01:46.136Z,88.40
2023-04-03T18:04:14.180Z,88.34
2023-04-03T18:06:45.960Z,88.49
2023-04-03T18:09:17.810Z,89.00
2023-04-03T18:11:47.649Z,88.58
2023-04-03T18:14:18.089Z,88.65
2023-04-03T18:16:45.382Z,88.75
2023-04-03T18:19:22.796Z,89.83
2023-04-03T18:21:57.224Z,90.21
2023-04-03T18:24:26.405Z,90.47
2023-04-03T18:27:06.315Z,90.79
2023-04-03T18:29:36.610Z,91.10
2023-04-03T18:32:04.699Z,91.18
2023-04-03T18:34:32.744Z,90.97
2023-04-03T18:37:00.381Z,91.08
2023-04-03T18:39:27.908Z,92.02
2023-04-03T18:41:56.619Z,92.32
2023-04-03T18:44:25.707Z,92.54
2023-04-03T18:46:54.145Z,91.75
2023-04-03T18:49:21.546Z,91.78
2023-04-03T18:51:48.716Z,92.76
2023-04-03T18:54:16.523Z,93.48
2023-04-03T18:56:43.678Z,93.29
2023-04-03T18:59:10.928Z,93.23
2023-04-03T19:01:38.025Z,93.08
2023-04-03T19:04:05.197Z,92.40
2023-04-03T19:06:34.777Z,93.18
2023-04-03T19:09:03.069Z,92.86
2023-04-03T19:11:31.515Z,92.60
2023-04-03T19:14:14.470Z,92.47
2023-04-03T19:16:43.777Z,92.20
2023-04-03T19:19:11.302Z,92.87
2023-04-03T19:21:41.417Z,92.15
2023-04-03T19:24:11.386Z,93.06
2023-04-03T19:26:39.485Z,93.19
2023-04-03T19:29:07.380Z,93.00
2023-04-03T19:31:36.916Z,92.16
2023-04-03T19:34:05.796Z,91.39
2023-04-03T19:36:34.146Z,91.80
2023-04-03T19:39:01.418Z,92.06
2023-04-03T19:41:31.767Z,91.61
2023-04-03T19:43:59.115Z,91.83
2023-04-03T19:46:28.132Z,91.79
2023-04-03T19:48:55.629Z,92.17
2023-04-03T19:51:22.798Z,92.10
2023-04-03T19:53:50.061Z,92.13
2023-04-03T19:56:17.588Z,92.20
2023-04-03T19:58:45.176Z,92.44
2023-04-03T20:01:13.188Z,92.12
2023-04-03T20:03:42.811Z,91.74
2023-04-03T20:06:09.938Z,91.66
2023-04-03T20:08:37.199Z,91.75
2023-04-03T20:11:04.365Z,91.90
2023-04-03T20:13:33.256Z,91.66
2023-04-03T20:16:05.136Z,91.84
2023-04-03T20:18:33.411Z,91.78
2023-04-03T20:21:03.072Z,91.43
2023-04-03T20:23:30.933Z,91.98
2023-04-03T20:26:09.519Z,91.92
2023-04-03T20:28:40.071Z,91.65
2023-04-03T20:31:08.006Z,92.70
2023-04-03T20:33:35.976Z,92.74
2023-04-03T20:36:04.318Z,92.80
2023-04-03T20:38:31.388Z,92.60
2023-04-03T20:40:58.540Z,92.10
2023-04-03T20:43:25.766Z,92.26
2023-04-03T20:45:53.275Z,91.47
2023-04-03T20:48:20.428Z,92.60
2023-04-03T20:50:47.746Z,92.16
2023-04-03T20:53:18.155Z,92.35
2023-04-03T20:56:01.291Z,92.52
2023-04-03T20:58:33.412Z,93.31
2023-04-03T21:01:01.326Z,94.44
2023-04-03T21:03:30.439Z,94.62
2023-04-03T21:06:00.571Z,94.89
2023-04-03T21:09:05.634Z,94.08
2023-04-03T21:12:09.884Z,94.65
2023-04-03T21:15:14.818Z,95.22
2023-04-03T21:18:06.818Z,95.41
2023-04-03T21:20:34.010Z,96.07
2023-04-03T21:23:01.152Z,95.68
2023-04-03T21:25:28.545Z,95.82
2023-04-03T21:27:55.943Z,95.56
2023-04-03T21:30:23.047Z,95.28
2023-04-03T21:32:50.145Z,95.73
2023-04-03T21:35:17.345Z,95.42
2023-04-03T21:37:44.459Z,95.72
2023-04-03T21:40:11.721Z,95.64
2023-04-03T21:42:39.265Z,95.18
2023-04-03T21:45:06.762Z,95.10
2023-04-03T21:47:35.734Z,95.48
2023-04-03T21:50:03.549Z,95.15
2023-04-03T21:52:30.785Z,95.06
2023-04-03T21:54:58.031Z,94.91
2023-04-03T21:57:25.434Z,94.27
2023-04-03T21:59:52.579Z,94.03
2023-04-03T22:02:19.646Z,94.43
2023-04-03T22:04:47.782Z,94.43
2023-04-03T22:07:14.890Z,93.81
2023-04-03T22:09:42.172Z,93.72
2023-04-03T22:12:11.934Z,95.20
2023-04-03T22:14:39.640Z,95.00
2023-04-03T22:17:07.351Z,95.53
2023-04-03T22:19:34.601Z,96.13
2023-04-03T22:22:03.802Z,95.90
2023-04-03T22:24:31.246Z,96.18
2023-04-03T22:26:58.348Z,95.51
2023-04-03T22:29:25.570Z,95.82
2023-04-03T22:31:52.721Z,96.04
2023-04-03T22:34:20.770Z,96.23
2023-04-03T22:36:48.122Z,95.90
2023-04-03T22:39:16.600Z,95.95
2023-04-03T22:41:45.409Z,95.87
2023-04-03T22:44:13.032Z,96.14
2023-04-03T22:46:40.155Z,96.21
2023-04-03T22:49:07.737Z,95.58
2023-04-03T22:51:34.811Z,95.28
2023-04-03T22:54:01.898Z,96.22
2023-04-03T22:56:29.461Z,96.16
2023-04-03T22:58:57.287Z,95.89
2023-04-03T23:01:25.368Z,95.79
2023-04-03T23:03:52.567Z,95.33
2023-04-03T23:06:19.859Z,95.54
2023-04-03T23:08:46.977Z,95.39
2023-04-03T23:11:14.047Z,95.68
2023-04-03T23:13:41.376Z,94.76
2023-04-03T23:16:09.089Z,94.65
2023-04-03T23:18:39.968Z,94.32
2023-04-03T23:21:08.625Z,94.54
2023-04-03T23:23:35.762Z,94.65
2023-04-03T23:26:03.348Z,94.44
2023-04-03T23:28:31.231Z,93.89
2023-04-03T23:31:03.371Z,94.65
2023-04-03T23:33:31.848Z,94.62
2023-04-03T23:36:00.846Z,93.97
2023-04-03T23:38:27.949Z,94.85
2023-04-03T23:40:55.027Z,94.67
2023-04-03T23:43:22.094Z,93.88
2023-04-03T23:45:49.203Z,94.31
2023-04-03T23:48:16.602Z,94.55
2023-04-03T23:50:44.122Z,95.21
2023-04-03T23:53:13.580Z,95.99
2023-04-03T23:55:41.427Z,96.30
2023-04-03T23:58:08.504Z,96.27
